Time;durP1;ratioP1;P1;durP2;ratioP2;P2;SDS_P1;SDS_P2;PMS_P1;PMS_P2;Temp;Humidity;BMP_temperature;BMP_pressure;BME280_temperature;BME280_humidity;BME280_pressure;Samples;Min_cycle;Max_cycle;Signal;HPM_P1;HPM_P2
2023/09/22 00:02:25;;;;;;;3.10;2.00;;;14.50;99.90;;;;;;5029036;28;20936;-65
2023/09/22 00:04:53;;;;;;;3.27;2.77;;;14.50;99.90;;;;;;5036417;28;20491;-64
2023/09/22 00:07:20;;;;;;;3.53;2.23;;;14.50;99.90;;;;;;5036001;28;20513;-62
2023/09/22 00:09:48;;;;;;;4.50;2.97;;;14.50;99.90;;;;;;5036317;28;20880;-63
2023/09/22 00:12:15;;;;;;;4.00;3.13;;;14.50;99.90;;;;;;5035871;28;20493;-64
2023/09/22 00:14:45;;;;;;;5.20;3.00;;;14.50;99.90;;;;;;5036430;28;20553;-64
2023/09/22 00:17:12;;;;;;;4.83;2.90;;;14.50;99.90;;;;;;5035311;28;20558;-65
2023/09/22 00:19:39;;;;;;;5.27;3.20;;;14.50;99.90;;;;;;5035749;28;20490;-64
2023/09/22 00:22:06;;;;;;;5.07;3.60;;;14.50;99.90;;;;;;5035716;28;20494;-62
2023/09/22 00:24:34;;;;;;;3.80;3.40;;;14.50;99.90;;;;;;5034793;28;20950;-65
2023/09/22 00:27:01;;;;;;;5.37;3.50;;;14.50;99.90;;;;;;5035942;28;20455;-65
2023/09/22 00:29:28;;;;;;;3.90;3.50;;;14.50;99.90;;;;;;5035308;28;20546;-63
2023/09/22 00:31:56;;;;;;;4.07;3.37;;;14.50;19.60;;;;;;5035371;28;20561;-63
2023/09/22 00:34:23;;;;;;;3.90;3.50;;;14.30;1.00;;;;;;5035797;28;20459;-66
2023/09/22 00:36:52;;;;;;;3.20;2.67;;;14.30;1.00;;;;;;5033993;28;20546;-60
2023/09/22 00:39:20;;;;;;;5.43;3.60;;;14.20;1.00;;;;;;5035072;28;20468;-62
2023/09/22 00:41:47;;;;;;;4.47;3.13;;;14.10;99.90;;;;;;5034837;28;20512;-64
2023/09/22 00:44:15;;;;;;;9.83;4.07;;;14.20;99.90;;;;;;5035124;28;20549;-66
2023/09/22 00:46:42;;;;;;;4.70;3.43;;;14.20;99.90;;;;;;5035631;28;20470;-66
2023/09/22 00:49:11;;;;;;;3.10;2.80;;;14.20;99.90;;;;;;5035714;28;20483;-67
2023/09/22 00:51:38;;;;;;;3.30;2.97;;;14.20;1.00;;;;;;5035576;28;20459;-66
2023/09/22 00:54:06;;;;;;;3.40;2.77;;;14.10;1.00;;;;;;5035422;28;20430;-65
2023/09/22 00:56:33;;;;;;;4.40;3.40;;;14.20;99.90;;;;;;5035387;28;20463;-66
2023/09/22 00:59:00;;;;;;;4.23;3.83;;;14.20;45.90;;;;;;5034689;28;20917;-67
2023/09/22 01:01:28;;;;;;;3.97;3.30;;;14.20;99.90;;;;;;5034698;28;20519;-66
2023/09/22 01:03:55;;;;;;;5.07;4.27;;;14.20;99.90;;;;;;5035016;28;20856;-66
2023/09/22 01:06:24;;;;;;;3.60;2.87;;;14.20;99.90;;;;;;5035283;28;20460;-61
2023/09/22 01:08:51;;;;;;;3.53;3.10;;;14.20;99.90;;;;;;5035190;28;20510;-69
2023/09/22 01:11:19;;;;;;;3.43;2.90;;;14.20;99.90;;;;;;5034784;28;20561;-66
2023/09/22 01:13:46;;;;;;;6.53;3.83;;;14.10;99.90;;;;;;5033971;28;20960;-66
2023/09/22 01:16:13;;;;;;;6.10;3.50;;;14.10;91.20;;;;;;5034994;28;20470;-65
2023/09/22 01:18:41;;;;;;;4.20;2.97;;;14.10;64.30;;;;;;5035217;28;20813;-66
2023/09/22 01:21:08;;;;;;;3.83;2.57;;;14.00;99.90;;;;;;5034812;28;20558;-67
2023/09/22 01:23:37;;;;;;;4.60;3.07;;;14.00;1.00;;;;;;5034919;28;20579;-66
2023/09/22 01:26:04;;;;;;;3.90;2.70;;;14.00;1.00;;;;;;5034830;28;20499;-66
2023/09/22 01:28:31;;;;;;;3.60;2.43;;;14.00;1.00;;;;;;5034394;28;20506;-67
2023/09/22 01:30:59;;;;;;;4.00;2.60;;;14.00;55.80;;;;;;5035183;28;20482;-69
2023/09/22 01:33:26;;;;;;;4.57;3.20;;;13.90;1.00;;;;;;5034679;28;20843;-67
2023/09/22 01:35:53;;;;;;;4.30;3.30;;;14.00;1.00;;;;;;5034950;28;20459;-69
2023/09/22 01:38:23;;;;;;;4.67;3.40;;;13.90;1.00;;;;;;5034803;28;20456;-67
2023/09/22 01:40:52;;;;;;;4.80;2.97;;;14.00;1.00;;;;;;5034754;28;20491;-67
2023/09/22 01:43:19;;;;;;;4.63;2.80;;;14.00;99.20;;;;;;5034118;28;20554;-69
2023/09/22 01:45:46;;;;;;;6.73;3.23;;;14.00;75.80;;;;;;5034545;28;21022;-67
2023/09/22 01:48:14;;;;;;;5.13;3.40;;;14.00;99.90;;;;;;5034484;28;20892;-67
2023/09/22 01:50:42;;;;;;;5.13;3.50;;;14.00;99.90;;;;;;5034893;28;20553;-67
2023/09/22 01:53:11;;;;;;;6.37;4.20;;;14.00;99.90;;;;;;5034589;28;20943;-66
2023/09/22 01:55:38;;;;;;;7.80;4.10;;;14.00;99.90;;;;;;5033972;28;20452;-67
2023/09/22 01:58:08;;;;;;;6.83;4.30;;;14.00;1.00;;;;;;5034399;28;20467;-67
2023/09/22 02:00:35;;;;;;;5.27;4.03;;;14.00;28.90;;;;;;5034704;28;20463;-68
2023/09/22 02:03:04;;;;;;;5.97;4.37;;;14.00;99.90;;;;;;5034772;28;20561;-67
2023/09/22 02:05:31;;;;;;;7.90;5.07;;;14.00;99.90;;;;;;5034247;28;20889;-67
2023/09/22 02:07:59;;;;;;;6.10;4.77;;;14.00;99.90;;;;;;5034384;28;20532;-68
2023/09/22 02:10:27;;;;;;;5.93;4.57;;;14.00;99.90;;;;;;5034498;28;20470;-67
2023/09/22 02:12:54;;;;;;;7.50;5.40;;;14.00;99.90;;;;;;5034377;28;20463;-67
2023/09/22 02:15:23;;;;;;;6.07;5.47;;;13.90;99.90;;;;;;5034174;28;20889;-65
2023/09/22 02:17:50;;;;;;;5.90;4.90;;;13.80;99.90;;;;;;5034427;28;20495;-66
2023/09/22 02:20:22;;;;;;;6.80;5.10;;;13.80;1.00;;;;;;5034297;28;20966;-67
2023/09/22 02:22:50;;;;;;;5.70;4.50;;;13.80;99.90;;;;;;5034231;28;20524;-68
2023/09/22 02:25:17;;;;;;;7.23;3.77;;;13.70;1.00;;;;;;5033579;28;20564;-67
2023/09/22 02:27:45;;;;;;;6.40;4.27;;;13.70;1.00;;;;;;5034230;28;20865;-66
2023/09/22 02:30:14;;;;;;;3.50;2.97;;;13.70;1.00;;;;;;5033862;28;20562;-68
2023/09/22 02:32:47;;;;;;;6.17;3.70;;;13.70;1.00;;;;;;5034114;28;20471;-66
2023/09/22 02:35:14;;;;;;;4.80;3.20;;;13.60;1.00;;;;;;5033952;28;20907;-67
2023/09/22 02:37:42;;;;;;;4.80;3.40;;;13.60;99.90;;;;;;5034063;28;20559;-67
2023/09/22 02:40:12;;;;;;;4.10;3.20;;;13.50;99.90;;;;;;5034096;28;20550;-67
2023/09/22 02:42:40;;;;;;;6.93;2.83;;;13.40;99.90;;;;;;5033922;28;20558;-67
2023/09/22 02:45:08;;;;;;;5.97;2.93;;;13.40;99.90;;;;;;5034217;28;20768;-67
2023/09/22 02:47:36;;;;;;;5.30;3.37;;;13.40;99.90;;;;;;5034017;28;20462;-68
2023/09/22 02:50:08;;;;;;;6.37;2.67;;;13.30;99.90;;;;;;5032936;28;20502;-67
2023/09/22 02:52:35;;;;;;;6.37;3.00;;;13.20;99.90;;;;;;5033893;28;20503;-66
2023/09/22 02:55:03;;;;;;;5.80;2.87;;;13.20;99.90;;;;;;5033970;28;20462;-66
2023/09/22 02:57:30;;;;;;;3.70;2.57;;;13.20;99.90;;;;;;5033441;28;20464;-67
2023/09/22 02:59:58;;;;;;;4.57;3.03;;;13.10;99.90;;;;;;5035382;28;20463;-67
2023/09/22 03:02:25;;;;;;;3.87;2.60;;;13.00;99.90;;;;;;5037116;28;20494;-67
2023/09/22 03:04:53;;;;;;;3.53;2.80;;;13.00;99.90;;;;;;5037082;28;20491;-67
2023/09/22 03:07:22;;;;;;;5.27;3.00;;;12.90;99.90;;;;;;5037018;28;20543;-67
2023/09/22 03:09:49;;;;;;;5.23;2.73;;;12.90;1.00;;;;;;5036718;28;20463;-68
2023/09/22 03:12:16;;;;;;;5.27;3.60;;;12.90;1.00;;;;;;5037329;28;20465;-66
2023/09/22 03:14:43;;;;;;;4.63;3.43;;;12.90;1.00;;;;;;5037374;28;20508;-67
2023/09/22 03:17:11;;;;;;;6.50;3.83;;;12.90;1.00;;;;;;5036657;28;20538;-66
2023/09/22 03:19:38;;;;;;;7.33;3.33;;;12.90;1.00;;;;;;5036761;28;20870;-67
2023/09/22 03:22:05;;;;;;;6.40;3.90;;;12.90;1.00;;;;;;5036829;28;20463;-67
2023/09/22 03:24:35;;;;;;;4.37;3.67;;;12.80;1.00;;;;;;5035878;28;20813;-67
2023/09/22 03:27:02;;;;;;;4.80;3.37;;;12.80;1.00;;;;;;5033772;28;20574;-65
2023/09/22 03:29:30;;;;;;;6.20;3.30;;;12.80;1.00;;;;;;5032373;28;20480;-67
2023/09/22 03:31:57;;;;;;;4.37;3.37;;;12.80;1.00;;;;;;5036377;28;20468;-65
2023/09/22 03:34:24;;;;;;;4.03;3.43;;;12.80;1.00;;;;;;5036600;28;20495;-66
2023/09/22 03:36:52;;;;;;;6.87;3.03;;;12.80;1.00;;;;;;5037031;28;20456;-69
2023/09/22 03:39:21;;;;;;;4.80;2.93;;;12.80;1.00;;;;;;5036374;28;20566;-66
2023/09/22 03:41:52;;;;;;;7.20;2.83;;;12.80;1.00;;;;;;5036433;28;20464;-67
2023/09/22 03:44:20;;;;;;;5.50;3.50;;;12.80;1.00;;;;;;5037135;28;20508;-67
2023/09/22 03:46:47;;;;;;;6.27;3.73;;;12.80;1.00;;;;;;5036830;28;20850;-67
2023/09/22 03:49:14;;;;;;;4.60;3.63;;;12.80;1.00;;;;;;5036245;28;20868;-67
2023/09/22 03:51:42;;;;;;;5.87;2.63;;;12.70;1.00;;;;;;5036402;28;20554;-67
2023/09/22 03:54:09;;;;;;;5.63;2.80;;;12.60;1.00;;;;;;5036311;28;20463;-67
2023/09/22 03:56:38;;;;;;;5.53;3.20;;;12.70;1.00;;;;;;5036399;28;20456;-67
2023/09/22 03:59:07;;;;;;;3.20;2.40;;;12.60;99.90;;;;;;5036332;28;20733;-66
2023/09/22 04:01:35;;;;;;;6.97;3.67;;;12.60;99.90;;;;;;5035567;28;20487;-66
2023/09/22 04:04:04;;;;;;;3.60;3.13;;;12.70;99.90;;;;;;5036055;28;20463;-66
2023/09/22 04:06:31;;;;;;;4.90;2.90;;;12.70;96.60;;;;;;5036199;28;20495;-66
2023/09/22 04:08:58;;;;;;;5.97;2.97;;;12.60;1.00;;;;;;5036175;28;20467;-67
2023/09/22 04:11:25;;;;;;;3.77;2.60;;;12.60;99.90;;;;;;5036194;28;20826;-67
2023/09/22 04:13:53;;;;;;;5.30;2.93;;;12.60;1.00;;;;;;5036234;28;20549;-66
2023/09/22 04:16:21;;;;;;;4.83;3.00;;;12.60;1.00;;;;;;5036169;28;20467;-67
2023/09/22 04:18:54;;;;;;;5.40;3.10;;;12.60;1.00;;;;;;5035985;28;20459;-67
2023/09/22 04:21:22;;;;;;;3.80;2.63;;;12.50;1.00;;;;;;5035586;28;20475;-66
2023/09/22 04:23:51;;;;;;;4.63;2.93;;;12.60;1.00;;;;;;5035889;28;20765;-65
2023/09/22 04:26:27;;;;;;;3.93;2.70;;;12.60;1.00;;;;;;5035913;28;20775;-67
2023/09/22 04:28:55;;;;;;;5.23;3.00;;;12.50;1.00;;;;;;5035803;28;20466;-67
2023/09/22 04:31:24;;;;;;;3.63;2.73;;;12.50;1.00;;;;;;5035562;28;20485;-66
2023/09/22 04:33:52;;;;;;;5.40;3.47;;;12.50;1.00;;;;;;5035836;28;20464;-66
2023/09/22 04:36:21;;;;;;;3.90;2.70;;;12.50;1.00;;;;;;5043050;27;20513;-66
2023/09/22 04:38:50;;;;;;;3.83;2.77;;;12.50;1.00;;;;;;5033967;28;20964;-67
2023/09/22 04:41:19;;;;;;;6.17;2.63;;;12.50;1.00;;;;;;5033908;28;20460;-66
2023/09/22 04:43:47;;;;;;;5.40;3.30;;;12.50;1.00;;;;;;5033338;28;20463;-66
2023/09/22 04:46:14;;;;;;;5.60;3.20;;;12.60;1.00;;;;;;5033422;28;20479;-66
2023/09/22 04:48:43;;;;;;;4.40;3.17;;;12.60;1.00;;;;;;5032952;28;20550;-65
2023/09/22 04:51:10;;;;;;;4.37;2.93;;;12.60;99.90;;;;;;5030837;28;20478;-65
2023/09/22 04:53:39;;;;;;;5.73;3.00;;;12.60;99.90;;;;;;5033820;28;20566;-65
2023/09/22 04:56:07;;;;;;;6.63;2.80;;;12.60;99.90;;;;;;5035346;28;20925;-66
2023/09/22 04:58:37;;;;;;;4.57;2.70;;;12.60;99.90;;;;;;5035536;28;20466;-65
2023/09/22 05:01:05;;;;;;;6.23;3.30;;;12.60;99.90;;;;;;5035189;28;20555;-65
2023/09/22 05:03:34;;;;;;;3.53;2.47;;;12.30;99.90;;;;;;5034634;28;20850;-65
2023/09/22 05:06:09;;;;;;;4.10;2.70;;;12.40;1.00;;;;;;5034952;28;20523;-65
2023/09/22 05:08:37;;;;;;;8.63;3.00;;;12.40;1.00;;;;;;5035533;28;20548;-65
2023/09/22 05:11:05;;;;;;;4.90;2.53;;;12.40;1.00;;;;;;5035316;28;20466;-65
2023/09/22 05:13:33;;;;;;;5.23;2.80;;;12.50;1.00;;;;;;5034410;28;20827;-66
2023/09/22 05:16:09;;;;;;;4.90;2.73;;;12.50;1.00;;;;;;5035081;28;20605;-65
2023/09/22 05:18:36;;;;;;;5.33;3.13;;;12.50;1.00;;;;;;5035656;28;20458;-66
2023/09/22 05:21:04;;;;;;;6.43;3.20;;;12.60;1.00;;;;;;5035384;28;20547;-65
2023/09/22 05:23:34;;;;;;;9.03;2.87;;;12.60;1.00;;;;;;5033626;28;20562;-66
2023/09/22 05:26:05;;;;;;;5.90;3.30;;;12.70;99.90;;;;;;5034161;28;20495;-65
2023/09/22 05:28:33;;;;;;;5.90;3.00;;;12.70;99.90;;;;;;5035544;28;20538;-66
2023/09/22 05:31:03;;;;;;;7.50;3.20;;;12.70;99.90;;;;;;5035261;28;20876;-66
2023/09/22 05:33:31;;;;;;;4.33;2.90;;;12.70;1.00;;;;;;5034827;28;20513;-66
2023/09/22 05:35:58;;;;;;;6.83;3.17;;;12.70;1.00;;;;;;5034755;28;20524;-66
2023/09/22 05:38:25;;;;;;;5.13;3.00;;;12.70;1.00;;;;;;5034395;28;20467;-65
2023/09/22 05:40:54;;;;;;;8.80;2.87;;;12.70;99.90;;;;;;5034867;28;20459;-66
2023/09/22 05:43:22;;;;;;;5.60;2.60;;;12.60;99.90;;;;;;5034486;28;20558;-65
2023/09/22 05:45:54;;;;;;;5.03;2.83;;;12.60;95.60;;;;;;5034925;28;20535;-67
2023/09/22 05:48:21;;;;;;;4.57;2.80;;;12.70;99.90;;;;;;5034858;28;20466;-66
2023/09/22 05:50:57;;;;;;;4.47;2.83;;;12.70;99.90;;;;;;5034043;28;20481;-64
2023/09/22 05:53:25;;;;;;;4.50;3.40;;;12.70;99.90;;;;;;5034500;28;20458;-65
2023/09/22 05:56:04;;;;;;;4.43;2.70;;;12.70;1.00;;;;;;5034601;28;20455;-65
2023/09/22 05:58:32;;;;;;;4.70;3.13;;;12.70;1.00;;;;;;5031836;28;20471;-66
2023/09/22 06:01:07;;;;;;;5.17;2.83;;;12.70;1.00;;;;;;5033404;28;20794;-66
2023/09/22 06:03:34;;;;;;;3.60;2.80;;;12.70;99.90;;;;;;5034539;28;20467;-65
2023/09/22 06:06:06;;;;;;;5.43;2.63;;;12.70;1.00;;;;;;5034045;28;20526;-64
2023/09/22 06:08:33;;;;;;;8.63;2.63;;;12.70;1.00;;;;;;5028205;28;20956;-65
2023/09/22 06:11:02;;;;;;;4.80;2.97;;;12.80;99.90;;;;;;5013775;28;20559;-65
2023/09/22 06:13:29;;;;;;;4.80;2.83;;;12.80;1.00;;;;;;5013534;28;20763;-67
2023/09/22 06:15:56;;;;;;;6.20;3.47;;;12.80;1.00;;;;;;5013452;28;20898;-65
2023/09/22 06:18:24;;;;;;;7.20;2.93;;;12.70;1.00;;;;;;5013944;28;20555;-65
2023/09/22 06:20:55;;;;;;;5.57;2.70;;;12.80;1.00;;;;;;5037739;28;20474;-66
2023/09/22 06:23:23;;;;;;;4.50;2.40;;;12.80;1.00;;;;;;5046766;28;20495;-65
2023/09/22 06:25:51;;;;;;;5.20;3.27;;;12.80;1.00;;;;;;5033628;28;20517;-64
2023/09/22 06:28:19;;;;;;;8.10;2.97;;;12.80;1.00;;;;;;5034106;28;20467;-65
2023/09/22 06:30:47;;;;;;;5.90;3.20;;;12.80;1.00;;;;;;5034351;28;20499;-65
2023/09/22 06:33:15;;;;;;;5.50;2.80;;;12.80;99.90;;;;;;5033775;28;20466;-64
2023/09/22 06:35:43;;;;;;;5.23;3.00;;;12.80;99.90;;;;;;5036653;28;20858;-64
2023/09/22 06:38:10;;;;;;;5.50;2.90;;;12.80;1.00;;;;;;5036874;28;20831;-64
2023/09/22 06:40:38;;;;;;;3.80;3.17;;;12.90;1.00;;;;;;5037869;28;20466;-64
2023/09/22 06:43:07;;;;;;;6.47;3.00;;;12.90;1.00;;;;;;5037787;28;20455;-64
2023/09/22 06:45:38;;;;;;;5.20;3.33;;;12.90;1.00;;;;;;5037133;28;20468;-66
2023/09/22 06:48:06;;;;;;;3.93;2.80;;;12.90;99.90;;;;;;5037203;28;20508;-66
2023/09/22 06:50:35;;;;;;;4.43;2.73;;;12.90;1.00;;;;;;5037171;28;20455;-65
2023/09/22 06:53:02;;;;;;;5.23;2.20;;;12.90;1.00;;;;;;5037253;28;20833;-65
2023/09/22 06:55:30;;;;;;;5.87;2.43;;;13.20;1.00;;;;;;5036952;28;20891;-65
2023/09/22 06:57:58;;;;;;;3.50;2.30;;;13.30;1.00;;;;;;5037571;28;20550;-63
2023/09/22 07:00:28;;;;;;;3.40;2.00;;;13.40;99.90;;;;;;5036721;28;20470;-65
2023/09/22 07:02:57;;;;;;;4.27;2.60;;;13.30;99.90;;;;;;5036499;28;20470;-66
2023/09/22 07:05:24;;;;;;;3.70;2.50;;;13.30;1.00;;;;;;5037081;28;20503;-65
2023/09/22 07:07:52;;;;;;;3.53;2.33;;;13.30;1.00;;;;;;5035942;28;20793;-67
2023/09/22 07:10:20;;;;;;;4.10;2.70;;;13.30;86.60;;;;;;5035222;28;20519;-66
2023/09/22 07:12:48;;;;;;;4.00;2.20;;;13.30;64.70;;;;;;5035284;28;20447;-67
2023/09/22 07:15:16;;;;;;;4.27;2.50;;;13.30;36.90;;;;;;5034930;28;20491;-66
2023/09/22 07:17:44;;;;;;;3.50;2.83;;;13.40;48.30;;;;;;5034283;28;20519;-65
2023/09/22 07:20:14;;;;;;;6.10;3.13;;;13.50;50.70;;;;;;5034748;28;20470;-66
2023/09/22 07:22:44;;;;;;;3.97;2.40;;;13.50;30.50;;;;;;5034859;28;20755;-66
2023/09/22 07:25:11;;;;;;;5.87;2.20;;;13.50;9.50;;;;;;5034312;28;20491;-67
2023/09/22 07:27:39;;;;;;;5.90;2.70;;;13.50;44.20;;;;;;5034563;28;20599;-66
2023/09/22 07:30:09;;;;;;;3.50;2.43;;;13.50;44.40;;;;;;5034850;28;20463;-67
2023/09/22 07:32:38;;;;;;;4.97;2.50;;;13.60;36.40;;;;;;5035075;28;20455;-66
2023/09/22 07:35:10;;;;;;;3.50;2.17;;;13.70;23.80;;;;;;5035605;28;20470;-67
2023/09/22 07:37:40;;;;;;;4.03;2.13;;;13.80;1.00;;;;;;5035136;28;20545;-65
2023/09/22 07:40:09;;;;;;;3.00;2.23;;;13.80;1.00;;;;;;5035827;28;20907;-66
2023/09/22 07:42:38;;;;;;;4.80;2.27;;;13.80;1.00;;;;;;5034109;28;20451;-67
2023/09/22 07:45:06;;;;;;;7.00;2.47;;;13.90;1.00;;;;;;5034012;28;20966;-66
2023/09/22 07:47:34;;;;;;;3.63;2.67;;;14.00;1.00;;;;;;5033703;28;20495;-65
2023/09/22 07:50:02;;;;;;;4.70;2.53;;;14.10;1.00;;;;;;5031470;28;20516;-66
2023/09/22 07:52:30;;;;;;;4.33;2.53;;;14.30;1.00;;;;;;5034379;28;20498;-67
2023/09/22 07:54:59;;;;;;;4.47;2.20;;;14.20;1.00;;;;;;5034586;28;20760;-66
2023/09/22 07:57:30;;;;;;;5.47;3.17;;;14.30;1.00;;;;;;5034426;28;20540;-67
2023/09/22 07:59:57;;;;;;;3.73;2.37;;;14.20;1.00;;;;;;5034604;28;20980;-66
2023/09/22 08:02:25;;;;;;;5.20;2.50;;;14.40;1.00;;;;;;5034891;28;20483;-65
2023/09/22 08:04:52;;;;;;;3.70;2.10;;;14.50;99.90;;;;;;5034876;28;20897;-66
2023/09/22 08:07:22;;;;;;;4.27;1.87;;;14.60;99.90;;;;;;5033887;28;20491;-67
2023/09/22 08:09:49;;;;;;;3.60;2.10;;;14.70;99.90;;;;;;5035264;28;20467;-66
2023/09/22 08:12:18;;;;;;;4.80;2.03;;;14.90;99.90;;;;;;5034670;28;20456;-66
2023/09/22 08:14:46;;;;;;;3.97;2.37;;;14.90;99.90;;;;;;5034561;28;20495;-66
2023/09/22 08:17:15;;;;;;;3.57;2.10;;;14.90;99.90;;;;;;5034059;28;20538;-65
2023/09/22 08:19:42;;;;;;;4.07;1.93;;;15.00;99.90;;;;;;5034287;28;20471;-66
2023/09/22 08:22:10;;;;;;;5.80;2.13;;;15.30;99.90;;;;;;5034545;28;20558;-64
2023/09/22 08:24:38;;;;;;;6.60;2.80;;;15.50;99.90;;;;;;5035152;28;20470;-65
2023/09/22 08:27:05;;;;;;;4.43;2.13;;;15.50;99.90;;;;;;5035792;28;20586;-65
2023/09/22 08:29:34;;;;;;;5.07;2.10;;;15.70;99.90;;;;;;5035493;28;20895;-64
2023/09/22 08:32:02;;;;;;;3.90;2.30;;;16.10;99.90;;;;;;5036227;28;20460;-66
2023/09/22 08:34:29;;;;;;;3.40;1.80;;;16.40;99.90;;;;;;5035638;28;20486;-63
2023/09/22 08:36:56;;;;;;;3.60;2.03;;;16.60;1.00;;;;;;5035861;28;20558;-64
2023/09/22 08:39:25;;;;;;;3.20;2.00;;;16.60;99.90;;;;;;5034983;28;20504;-64
2023/09/22 08:41:52;;;;;;;3.47;1.90;;;16.70;99.90;;;;;;5033737;28;20512;-64
2023/09/22 08:44:20;;;;;;;4.40;1.70;;;17.10;99.90;;;;;;5034615;28;20461;-64
2023/09/22 08:46:49;;;;;;;3.50;2.20;;;17.30;99.90;;;;;;5034983;28;20593;-64
2023/09/22 08:49:17;;;;;;;4.40;2.03;;;17.30;99.90;;;;;;5025460;28;20537;-65
2023/09/22 08:51:44;;;;;;;3.73;2.33;;;17.20;27.40;;;;;;5024928;28;20558;-63
2023/09/22 08:54:11;;;;;;;2.97;1.70;;;17.20;99.90;;;;;;5022276;28;20512;-64
2023/09/22 08:56:40;;;;;;;2.60;1.67;;;17.30;31.70;;;;;;5013390;28;20579;-65
2023/09/22 08:59:08;;;;;;;2.93;2.23;;;17.20;1.00;;;;;;5013523;28;20458;-64
2023/09/22 09:01:36;;;;;;;5.27;2.10;;;17.20;1.00;;;;;;5013688;28;20598;-63
2023/09/22 09:04:33;;;;;;;3.00;2.20;;;17.00;1.00;;;;;;5013551;28;20467;-63
2023/09/22 09:07:01;;;;;;;4.60;2.43;;;16.80;1.00;;;;;;5013035;28;20488;-64
2023/09/22 09:09:40;;;;;;;4.07;2.83;;;16.70;1.00;;;;;;5012155;28;20460;-63
2023/09/22 09:12:09;;;;;;;2.87;1.73;;;16.70;1.00;;;;;;5017830;28;20463;-63
2023/09/22 09:14:38;;;;;;;2.90;2.13;;;16.70;1.00;;;;;;5033198;28;20463;-63
2023/09/22 09:17:19;;;;;;;4.23;2.20;;;16.80;1.00;;;;;;5025054;28;20499;-63
2023/09/22 09:19:53;;;;;;;5.60;1.90;;;16.80;1.00;;;;;;5012731;28;20881;-63
2023/09/22 09:22:21;;;;;;;2.33;1.77;;;16.70;1.00;;;;;;5012678;28;20461;-63
2023/09/22 09:24:48;;;;;;;3.93;2.00;;;16.70;1.00;;;;;;5017079;28;20506;-62
2023/09/22 09:27:17;;;;;;;2.93;2.17;;;16.80;1.00;;;;;;5032552;28;20585;-66
2023/09/22 09:29:46;;;;;;;3.30;2.30;;;16.90;1.00;;;;;;5032102;28;20463;-63
2023/09/22 09:32:24;;;;;;;3.00;2.10;;;17.00;1.00;;;;;;5032734;28;20772;-63
2023/09/22 09:34:53;;;;;;;3.17;2.10;;;17.30;1.00;;;;;;5031174;28;20462;-62
2023/09/22 09:37:21;;;;;;;5.53;2.63;;;17.40;1.00;;;;;;5033287;28;20463;-62
2023/09/22 09:39:50;;;;;;;3.77;2.20;;;17.40;99.90;;;;;;5033571;28;20455;-62
2023/09/22 09:42:19;;;;;;;3.90;2.00;;;17.40;99.90;;;;;;5034081;28;20456;-62
2023/09/22 09:44:49;;;;;;;2.70;2.10;;;17.40;99.90;;;;;;5033967;28;20562;-63
2023/09/22 09:47:24;;;;;;;2.50;1.53;;;17.20;99.90;;;;;;5034031;28;20955;-62
2023/09/22 09:49:54;;;;;;;5.17;2.20;;;17.20;99.90;;;;;;5034399;28;20455;-62
2023/09/22 09:52:27;;;;;;;3.80;2.10;;;17.20;99.90;;;;;;5033961;28;21776;-61
2023/09/22 09:55:07;;;;;;;3.00;2.43;;;17.30;99.90;;;;;;5032263;28;20891;-62
2023/09/22 09:57:38;;;;;;;3.70;2.20;;;17.20;99.90;;;;;;5031505;28;20484;-65
2023/09/22 10:00:12;;;;;;;3.20;1.90;;;17.10;99.90;;;;;;5033821;28;20562;-63
2023/09/22 10:02:42;;;;;;;4.80;2.70;;;17.00;1.00;;;;;;5034200;28;20494;-64
2023/09/22 10:05:14;;;;;;;3.60;1.97;;;16.90;1.00;;;;;;5034537;28;20887;-63
2023/09/22 10:07:43;;;;;;;3.53;2.00;;;16.70;1.00;;;;;;5034626;28;20494;-65
2023/09/22 10:10:11;;;;;;;3.50;2.20;;;16.90;1.00;;;;;;5041059;28;20469;-63
2023/09/22 10:12:40;;;;;;;2.97;2.00;;;17.00;1.00;;;;;;5041270;28;20482;-64
2023/09/22 10:15:09;;;;;;;3.03;2.07;;;17.00;1.00;;;;;;5040772;28;20794;-63
2023/09/22 10:17:36;;;;;;;4.10;2.10;;;17.00;99.90;;;;;;5040669;28;20526;-62
2023/09/22 10:20:07;;;;;;;3.03;2.00;;;17.00;99.90;;;;;;5040494;28;20459;-63
2023/09/22 10:22:35;;;;;;;4.13;2.20;;;16.80;99.90;;;;;;5041392;28;20879;-66
2023/09/22 10:25:24;;;;;;;2.90;2.20;;;16.70;99.90;;;;;;5040756;28;20545;-63
2023/09/22 10:27:55;;;;;;;5.73;1.93;;;16.50;99.90;;;;;;5035942;27;20491;-64
2023/09/22 10:30:25;;;;;;;3.30;2.10;;;16.50;1.00;;;;;;5040594;28;20482;-63
2023/09/22 10:33:29;;;;;;;3.63;2.40;;;16.40;1.00;;;;;;5040805;28;20512;-63
2023/09/22 10:35:58;;;;;;;3.93;2.70;;;16.40;1.00;;;;;;5030372;28;20767;-63
2023/09/22 10:38:26;;;;;;;2.67;1.80;;;16.30;1.00;;;;;;5039784;28;20459;-65
2023/09/22 10:41:06;;;;;;;3.07;2.13;;;16.20;1.00;;;;;;5036721;28;20467;-65
2023/09/22 10:43:34;;;;;;;5.10;2.90;;;16.20;1.00;;;;;;5039195;28;20459;-65
2023/09/22 10:46:02;;;;;;;3.27;2.00;;;16.10;1.00;;;;;;5040534;28;20463;-66
2023/09/22 10:48:34;;;;;;;2.97;2.07;;;16.40;1.00;;;;;;5039679;28;20540;-65
2023/09/22 10:51:06;;;;;;;5.80;1.70;;;16.60;1.00;;;;;;5040439;28;20463;-66
2023/09/22 10:53:39;;;;;;;4.07;1.80;;;16.60;1.00;;;;;;5034748;28;20467;-66
2023/09/22 10:56:06;;;;;;;3.80;2.20;;;16.60;1.00;;;;;;5036080;28;20464;-66
2023/09/22 10:58:34;;;;;;;3.97;2.40;;;16.60;1.00;;;;;;5039802;28;20463;-67
2023/09/22 11:01:04;;;;;;;3.70;2.20;;;16.60;1.00;;;;;;5039151;28;20494;-69
2023/09/22 11:03:33;;;;;;;3.67;2.20;;;16.60;1.00;;;;;;5038397;28;20860;-67
2023/09/22 11:06:03;;;;;;;3.50;2.10;;;16.70;1.00;;;;;;5039096;28;20455;-66
2023/09/22 11:08:30;;;;;;;4.53;2.27;;;16.80;1.00;;;;;;5038971;28;20494;-68
2023/09/22 11:10:59;;;;;;;3.60;2.03;;;16.90;99.90;;;;;;5039880;28;20490;-68
2023/09/22 11:13:28;;;;;;;3.10;1.80;;;17.20;99.90;;;;;;5039609;28;20466;-66
2023/09/22 11:15:57;;;;;;;5.20;2.03;;;17.40;99.90;;;;;;5038177;28;20512;-69
2023/09/22 11:18:28;;;;;;;3.87;2.20;;;17.60;99.90;;;;;;5038377;28;20478;-66
2023/09/22 11:20:58;;;;;;;5.67;2.40;;;18.00;99.90;;;;;;5035129;28;20491;-63
2023/09/22 11:23:26;;;;;;;4.80;2.60;;;18.90;99.90;;;;;;5034549;28;20459;-65
2023/09/22 11:26:05;;;;;;;6.17;2.20;;;19.40;87.10;;;;;;5035420;28;20458;-65
2023/09/22 11:28:32;;;;;;;3.77;2.03;;;19.50;1.00;;;;;;5034814;28;20497;-62
2023/09/22 11:31:08;;;;;;;3.07;2.23;;;20.30;1.00;;;;;;5036834;28;20491;-63
2023/09/22 11:33:37;;;;;;;2.70;2.00;;;21.00;84.30;;;;;;5036062;28;20463;-64
2023/09/22 11:36:05;;;;;;;3.03;1.90;;;21.30;1.00;;;;;;5035577;28;20885;-66
2023/09/22 11:38:33;;;;;;;4.00;2.30;;;21.10;99.90;;;;;;5036065;28;20459;-66
2023/09/22 11:41:08;;;;;;;3.70;2.30;;;21.00;1.00;;;;;;5036662;28;20554;-65
2023/09/22 11:43:38;;;;;;;2.83;1.83;;;21.40;99.90;;;;;;5036568;28;20527;-64
2023/09/22 11:46:10;;;;;;;3.40;1.90;;;21.50;99.90;;;;;;5036373;28;20459;-66
2023/09/22 11:48:57;;;;;;;3.10;2.10;;;21.10;1.00;;;;;;5036558;28;20589;-65
2023/09/22 11:51:47;;;;;;;3.67;2.37;;;20.40;99.90;;;;;;5034014;28;20828;-64
2023/09/22 11:54:16;;;;;;;3.43;1.93;;;19.60;99.90;;;;;;5069612;27;20557;-65
2023/09/22 11:56:50;;;;;;;5.80;2.20;;;19.00;99.90;;;;;;5019370;28;20525;-64
2023/09/22 11:59:19;;;;;;;3.13;2.00;;;18.70;1.00;;;;;;5013704;28;20460;-64
2023/09/22 12:01:47;;;;;;;3.60;2.07;;;18.70;1.00;;;;;;5013804;28;20491;-64
2023/09/22 12:04:15;;;;;;;2.77;1.77;;;19.10;99.90;;;;;;5014134;28;20893;-65
2023/09/22 12:06:42;;;;;;;2.40;1.83;;;19.20;1.00;;;;;;5014488;28;20558;-64
2023/09/22 12:09:11;;;;;;;2.30;1.93;;;19.10;1.00;;;;;;5014234;28;20499;-64
2023/09/22 12:11:39;;;;;;;3.33;2.20;;;19.40;1.00;;;;;;5014663;28;20486;-65
2023/09/22 12:14:11;;;;;;;3.03;2.10;;;19.80;1.00;;;;;;5022283;28;20962;-65
2023/09/22 12:16:39;;;;;;;3.70;2.20;;;19.80;1.00;;;;;;5015202;28;20500;-64
2023/09/22 12:19:07;;;;;;;3.80;2.33;;;19.50;99.90;;;;;;5014313;28;20480;-64
2023/09/22 12:21:35;;;;;;;3.20;1.93;;;19.50;76.40;;;;;;5014272;28;20511;-64
2023/09/22 12:24:03;;;;;;;4.70;2.47;;;19.60;99.90;;;;;;5013914;28;20940;-64
2023/09/22 12:26:30;;;;;;;4.53;2.20;;;20.20;99.90;;;;;;5123250;27;20717;-64
2023/09/22 12:28:58;;;;;;;4.40;2.33;;;20.40;99.90;;;;;;5138884;27;20526;-64
2023/09/22 12:31:26;;;;;;;3.97;2.30;;;20.20;1.00;;;;;;5137964;27;20712;-64
2023/09/22 12:33:54;;;;;;;3.53;2.93;;;20.20;1.00;;;;;;5139499;27;20482;-64
2023/09/22 12:36:22;;;;;;;4.30;2.40;;;19.90;1.00;;;;;;5139281;27;20557;-65
2023/09/22 12:38:50;;;;;;;5.20;2.40;;;19.90;99.90;;;;;;5139544;27;20789;-64
2023/09/22 12:41:17;;;;;;;4.83;2.03;;;20.10;99.90;;;;;;5139288;27;20826;-64
2023/09/22 12:43:44;;;;;;;4.13;2.70;;;19.80;99.90;;;;;;5132295;27;20450;-66
2023/09/22 12:46:13;;;;;;;3.67;2.17;;;19.60;99.90;;;;;;5137056;27;20544;-65
2023/09/22 12:48:42;;;;;;;4.70;2.13;;;19.20;99.90;;;;;;5137236;27;20950;-63
2023/09/22 12:51:11;;;;;;;2.70;2.20;;;19.30;99.90;;;;;;5136593;27;20451;-64
2023/09/22 12:53:39;;;;;;;4.83;2.43;;;19.30;99.90;;;;;;5137223;27;20450;-64
2023/09/22 12:56:06;;;;;;;3.33;2.10;;;19.40;99.90;;;;;;5137731;27;20910;-63
2023/09/22 12:58:34;;;;;;;3.53;2.37;;;19.80;99.90;;;;;;5138145;27;20458;-63
2023/09/22 13:01:04;;;;;;;2.43;2.00;;;20.60;99.90;;;;;;5137173;27;20514;-64
2023/09/22 13:03:33;;;;;;;3.40;1.90;;;20.90;99.90;;;;;;5137430;27;20773;-63